Flight Track Log - Related Links

Times and Time Zones

All times are in EDT time to prevent confusion due to time zone crossing. See the SWA1969 flight status page for this flight to view local times or setup timezone preferences in your user account.

Time Position Orientation Groundspeed Altitude Reporting Facility
EDT Latitude Longitude Course Direction KTS MPH feet Rate Location/Type
Fri 07:56:12 AM 32.8833 -96.9000 351° North 192 221 2,800  Level Dallas / Fort Worth TRACON
Fri 07:57:06 AM 32.9333 -96.9500 320° Northwest 258 297 4,900 3,105 Climbing Dallas / Fort Worth TRACON
Fri 07:58:06 AM 33.0000 -96.9667 348° North 265 305 8,700 3,273 Climbing Dallas / Fort Worth TRACON
Fri 07:59:51 AM 33.1356 -97.0142 344° North 303 349 13,900 3,055 Climbing Fort Worth Center
Fri 08:00:51 AM 33.2169 -97.0411 345° North 323 372 17,100 3,050 Climbing Fort Worth Center
Fri 08:01:00 AM 33.2572 -96.9381 351° North  Level FlightAware Approximate
Fri 08:01:51 AM 33.3192 -97.0556 353° North 357 411 20,000  Level Fort Worth Center
Fri 08:02:51 AM 33.4300 -97.0700 354° North 368 423 23,000 2,700 Climbing Fort Worth Center
Fri 08:03:51 AM 33.5364 -97.0844 354° North 374 430 25,400 2,700 Climbing Fort Worth Center
Fri 08:04:51 AM 33.6408 -97.1017 352° North 379 436 28,400 1,800 Climbing Fort Worth Center
Fri 08:05:51 AM 33.7472 -97.1161 354° North 379 436 29,000 300 Climbing Fort Worth Center
Fri 08:06:51 AM 33.8392 -97.1308 352° North 379 436 29,000  Level Fort Worth Center
Fri 08:07:51 AM 33.9497 -97.1456 354° North 390 449 29,000  Level Fort Worth Center
Fri 08:08:51 AM 34.0603 -97.1628 353° North 390 449 29,000  Level Fort Worth Center
Fri 08:09:51 AM 34.1794 -97.1825 352° North 390 449 29,000 -200 Level Fort Worth Center
Fri 08:10:51 AM 34.2922 -97.1997 353° North 390 449 28,600 -1,850 Descending Fort Worth Center
Fri 08:11:51 AM 34.4028 -97.2272 348° North 395 455 25,300 -3,350 Descending Fort Worth Center
Fri 08:12:51 AM 34.5092 -97.2700 342° North 395 455 21,900 -3,400 Descending Fort Worth Center
Fri 08:13:51 AM 34.6156 -97.3125 342° North 400 460 18,500 -3,300 Descending Fort Worth Center
Fri 08:14:51 AM 34.7200 -97.3528 342° North 400 460 15,300 -2,400 Descending Fort Worth Center
Fri 08:15:51 AM 34.8158 -97.3933 341° North 388 447 13,700 -1,800 Descending Fort Worth Center
Fri 08:16:51 AM 34.9036 -97.4261 343° North 353 406 11,700 -1,600 Descending Fort Worth Center
Fri 08:17:51 AM 34.9933 -97.4414 352° North 328 377 10,500 -1,070 Descending Fort Worth Center
Fri 08:19:00 AM 35.0831 -97.4542 353° North 286 329 9,400 -1,150 Descending Fort Worth Center
Fri 08:19:51 AM 35.1475 -97.4669 351° North 286 329 8,200 -1,459 Descending Fort Worth Center
Fri 08:20:51 AM 35.2228 -97.4797 352° North 279 321 6,700 -1,550 Descending Fort Worth Center
Fri 08:21:51 AM 35.2978 -97.4925 352° North 274 315 5,100 -1,650 Descending Fort Worth Center
Fri 08:22:51 AM 35.3750 -97.5053 352° North 274 315 3,400 -1,050 Descending Fort Worth Center
Fri 08:23:51 AM 35.4458 -97.5181 352° North 274 315 3,000 -350 Descending Fort Worth Center
Fri 08:24:51 AM 35.4853 -97.5639 317° Northwest 215 247 2,700 -450 Descending Fort Worth Center
Fri 08:25:51 AM 35.4625 -97.5919 225° Southwest 105 121 2,100 -493 Descending Fort Worth Center
Fri 08:27:05 AM 35.4164 -97.5919 180° South 124 143 1,600 -400 Descending Fort Worth Center
Fri 08:27:51 AM 35.4019 -97.5969 196° South 90 104 1,300 5,321 Descending Fort Worth Center
Fri 08:28:51 AM 35.3747 -97.6044 193° South 90 104 11,000 4,850 Climbing Fort Worth Center
Fri 08:29:51 AM 35.3497 -97.6094 189° South 90 104 11,000  Level Fort Worth Center

Login

Don't have an account? Register now (free) for customized features, flight alerts, and more!